sensor_id;sensor_type;location;lat;lon;timestamp;P1;durP1;ratioP1;P2;durP2;ratioP2
15643;SDS011;7921;43.586;1.408;2022-11-11T00:00:11;8.97;;;8.10;;
15643;SDS011;7921;43.586;1.408;2022-11-11T00:02:37;9.17;;;7.80;;
15643;SDS011;7921;43.586;1.408;2022-11-11T00:05:02;8.50;;;7.53;;
15643;SDS011;7921;43.586;1.408;2022-11-11T00:07:28;8.63;;;7.90;;
15643;SDS011;7921;43.586;1.408;2022-11-11T00:09:53;10.37;;;9.17;;
15643;SDS011;7921;43.586;1.408;2022-11-11T00:12:19;8.17;;;7.37;;
15643;SDS011;7921;43.586;1.408;2022-11-11T00:14:44;10.93;;;8.37;;
15643;SDS011;7921;43.586;1.408;2022-11-11T00:17:11;8.77;;;5.53;;
15643;SDS011;7921;43.586;1.408;2022-11-11T00:19:56;8.83;;;5.57;;
15643;SDS011;7921;43.586;1.408;2022-11-11T00:22:40;8.60;;;7.80;;
15643;SDS011;7921;43.586;1.408;2022-11-11T00:25:24;8.70;;;7.83;;
15643;SDS011;7921;43.586;1.408;2022-11-11T00:27:49;6.60;;;5.20;;
15643;SDS011;7921;43.586;1.408;2022-11-11T00:30:14;8.30;;;7.50;;
15643;SDS011;7921;43.586;1.408;2022-11-11T00:32:40;9.43;;;7.93;;
15643;SDS011;7921;43.586;1.408;2022-11-11T00:35:05;9.47;;;7.47;;
15643;SDS011;7921;43.586;1.408;2022-11-11T00:37:49;6.60;;;5.93;;
15643;SDS011;7921;43.586;1.408;2022-11-11T00:40:15;7.50;;;6.80;;
15643;SDS011;7921;43.586;1.408;2022-11-11T00:42:40;7.33;;;6.63;;
15643;SDS011;7921;43.586;1.408;2022-11-11T00:45:06;7.60;;;6.90;;
15643;SDS011;7921;43.586;1.408;2022-11-11T00:47:32;7.87;;;7.17;;
15643;SDS011;7921;43.586;1.408;2022-11-11T00:50:20;7.50;;;6.80;;
15643;SDS011;7921;43.586;1.408;2022-11-11T00:53:12;7.13;;;6.57;;
15643;SDS011;7921;43.586;1.408;2022-11-11T00:55:39;7.30;;;6.20;;
15643;SDS011;7921;43.586;1.408;2022-11-11T00:58:04;7.40;;;6.70;;
15643;SDS011;7921;43.586;1.408;2022-11-11T01:00:30;7.37;;;6.47;;
15643;SDS011;7921;43.586;1.408;2022-11-11T01:02:56;8.23;;;7.38;;
15643;SDS011;7921;43.586;1.408;2022-11-11T01:05:22;8.00;;;7.20;;
15643;SDS011;7921;43.586;1.408;2022-11-11T01:07:48;8.87;;;7.97;;
15643;SDS011;7921;43.586;1.408;2022-11-11T01:10:14;12.13;;;9.50;;
15643;SDS011;7921;43.586;1.408;2022-11-11T01:13:00;12.20;;;10.23;;
15643;SDS011;7921;43.586;1.408;2022-11-11T01:15:35;19.70;;;14.23;;
15643;SDS011;7921;43.586;1.408;2022-11-11T01:18:01;16.27;;;13.40;;
15643;SDS011;7921;43.586;1.408;2022-11-11T01:20:26;22.50;;;14.20;;
15643;SDS011;7921;43.586;1.408;2022-11-11T01:22:52;23.17;;;14.63;;
15643;SDS011;7921;43.586;1.408;2022-11-11T01:25:17;21.83;;;14.43;;
15643;SDS011;7921;43.586;1.408;2022-11-11T01:27:42;16.20;;;12.97;;
15643;SDS011;7921;43.586;1.408;2022-11-11T01:30:08;20.67;;;14.43;;
15643;SDS011;7921;43.586;1.408;2022-11-11T01:32:33;17.33;;;13.10;;
15643;SDS011;7921;43.586;1.408;2022-11-11T01:34:59;15.57;;;11.77;;
15643;SDS011;7921;43.586;1.408;2022-11-11T01:37:24;15.20;;;9.07;;
15643;SDS011;7921;43.586;1.408;2022-11-11T01:39:49;10.60;;;7.03;;
15643;SDS011;7921;43.586;1.408;2022-11-11T01:42:15;15.70;;;12.73;;
15643;SDS011;7921;43.586;1.408;2022-11-11T01:44:42;17.63;;;12.77;;
15643;SDS011;7921;43.586;1.408;2022-11-11T01:47:10;19.47;;;14.80;;
15643;SDS011;7921;43.586;1.408;2022-11-11T01:52:22;18.77;;;13.23;;
15643;SDS011;7921;43.586;1.408;2022-11-11T01:54:58;16.67;;;13.53;;
15643;SDS011;7921;43.586;1.408;2022-11-11T02:00:18;16.97;;;12.77;;
15643;SDS011;7921;43.586;1.408;2022-11-11T02:05:12;15.07;;;11.00;;
15643;SDS011;7921;43.586;1.408;2022-11-11T02:07:58;12.17;;;9.23;;
15643;SDS011;7921;43.586;1.408;2022-11-11T02:10:25;11.17;;;9.50;;
15643;SDS011;7921;43.586;1.408;2022-11-11T02:12:52;17.17;;;12.80;;
15643;SDS011;7921;43.586;1.408;2022-11-11T02:15:36;16.53;;;8.07;;
15643;SDS011;7921;43.586;1.408;2022-11-11T02:18:02;18.83;;;9.90;;
15643;SDS011;7921;43.586;1.408;2022-11-11T02:20:29;21.93;;;15.87;;
15643;SDS011;7921;43.586;1.408;2022-11-11T02:25:35;19.80;;;13.10;;
15643;SDS011;7921;43.586;1.408;2022-11-11T02:28:03;16.30;;;12.30;;
15643;SDS011;7921;43.586;1.408;2022-11-11T02:30:29;20.47;;;13.20;;
15643;SDS011;7921;43.586;1.408;2022-11-11T02:32:55;17.63;;;13.40;;
15643;SDS011;7921;43.586;1.408;2022-11-11T02:35:30;15.63;;;7.70;;
15643;SDS011;7921;43.586;1.408;2022-11-11T02:37:57;15.57;;;8.60;;
15643;SDS011;7921;43.586;1.408;2022-11-11T02:40:32;14.60;;;11.47;;
15643;SDS011;7921;43.586;1.408;2022-11-11T02:43:01;17.17;;;12.57;;
15643;SDS011;7921;43.586;1.408;2022-11-11T02:45:26;19.00;;;12.23;;
15643;SDS011;7921;43.586;1.408;2022-11-11T02:47:52;21.47;;;13.13;;
15643;SDS011;7921;43.586;1.408;2022-11-11T02:50:17;21.00;;;13.43;;
15643;SDS011;7921;43.586;1.408;2022-11-11T02:52:43;16.93;;;12.07;;
15643;SDS011;7921;43.586;1.408;2022-11-11T02:55:08;20.73;;;12.63;;
15643;SDS011;7921;43.586;1.408;2022-11-11T02:57:34;15.23;;;12.20;;
15643;SDS011;7921;43.586;1.408;2022-11-11T03:00:00;14.93;;;11.90;;
15643;SDS011;7921;43.586;1.408;2022-11-11T03:02:27;18.00;;;12.87;;
15643;SDS011;7921;43.586;1.408;2022-11-11T03:04:53;14.40;;;12.20;;
15643;SDS011;7921;43.586;1.408;2022-11-11T03:07:20;26.50;;;17.07;;
15643;SDS011;7921;43.586;1.408;2022-11-11T03:09:45;25.07;;;15.63;;
15643;SDS011;7921;43.586;1.408;2022-11-11T03:12:11;27.10;;;15.47;;
15643;SDS011;7921;43.586;1.408;2022-11-11T03:14:36;14.97;;;7.90;;
15643;SDS011;7921;43.586;1.408;2022-11-11T03:17:02;16.27;;;10.93;;
15643;SDS011;7921;43.586;1.408;2022-11-11T03:19:45;7.63;;;5.80;;
15643;SDS011;7921;43.586;1.408;2022-11-11T03:22:11;14.00;;;9.27;;
15643;SDS011;7921;43.586;1.408;2022-11-11T03:24:36;15.27;;;9.90;;
15643;SDS011;7921;43.586;1.408;2022-11-11T03:27:20;12.80;;;9.17;;
15643;SDS011;7921;43.586;1.408;2022-11-11T03:29:46;10.20;;;9.07;;
15643;SDS011;7921;43.586;1.408;2022-11-11T03:32:11;12.67;;;9.03;;
15643;SDS011;7921;43.586;1.408;2022-11-11T03:34:37;8.80;;;5.10;;
15643;SDS011;7921;43.586;1.408;2022-11-11T03:37:05;9.00;;;5.90;;
15643;SDS011;7921;43.586;1.408;2022-11-11T03:39:51;6.30;;;5.07;;
15643;SDS011;7921;43.586;1.408;2022-11-11T03:42:16;5.73;;;4.47;;
15643;SDS011;7921;43.586;1.408;2022-11-11T03:44:42;8.47;;;5.50;;
15643;SDS011;7921;43.586;1.408;2022-11-11T03:47:07;7.17;;;5.77;;
15643;SDS011;7921;43.586;1.408;2022-11-11T03:49:33;6.80;;;5.43;;
15643;SDS011;7921;43.586;1.408;2022-11-11T03:51:58;6.10;;;5.60;;
15643;SDS011;7921;43.586;1.408;2022-11-11T03:54:23;6.43;;;5.77;;
15643;SDS011;7921;43.586;1.408;2022-11-11T03:56:49;7.10;;;6.40;;
15643;SDS011;7921;43.586;1.408;2022-11-11T03:59:14;5.80;;;5.30;;
15643;SDS011;7921;43.586;1.408;2022-11-11T04:01:39;6.50;;;5.50;;
15643;SDS011;7921;43.586;1.408;2022-11-11T04:04:23;7.20;;;5.60;;
15643;SDS011;7921;43.586;1.408;2022-11-11T04:07:08;6.32;;;5.60;;
15643;SDS011;7921;43.586;1.408;2022-11-11T04:09:52;6.77;;;5.47;;
15643;SDS011;7921;43.586;1.408;2022-11-11T04:12:36;6.83;;;5.57;;
15643;SDS011;7921;43.586;1.408;2022-11-11T04:15:23;5.63;;;5.13;;
15643;SDS011;7921;43.586;1.408;2022-11-11T04:18:07;7.77;;;6.97;;
15643;SDS011;7921;43.586;1.408;2022-11-11T04:20:32;7.63;;;6.93;;
15643;SDS011;7921;43.586;1.408;2022-11-11T04:23:16;7.23;;;6.63;;
15643;SDS011;7921;43.586;1.408;2022-11-11T04:25:41;7.30;;;6.67;;
15643;SDS011;7921;43.586;1.408;2022-11-11T04:28:12;7.63;;;7.03;;
15643;SDS011;7921;43.586;1.408;2022-11-11T04:30:56;8.17;;;7.37;;
15643;SDS011;7921;43.586;1.408;2022-11-11T04:33:21;6.90;;;6.23;;
15643;SDS011;7921;43.586;1.408;2022-11-11T04:35:50;7.97;;;6.73;;
15643;SDS011;7921;43.586;1.408;2022-11-11T04:38:15;6.47;;;5.77;;
15643;SDS011;7921;43.586;1.408;2022-11-11T04:40:59;7.40;;;6.47;;
15643;SDS011;7921;43.586;1.408;2022-11-11T04:43:28;6.50;;;5.90;;
15643;SDS011;7921;43.586;1.408;2022-11-11T04:45:59;6.03;;;5.43;;
15643;SDS011;7921;43.586;1.408;2022-11-11T04:48:25;5.77;;;5.27;;
15643;SDS011;7921;43.586;1.408;2022-11-11T04:50:50;6.20;;;5.70;;
15643;SDS011;7921;43.586;1.408;2022-11-11T04:53:16;6.20;;;5.70;;
15643;SDS011;7921;43.586;1.408;2022-11-11T04:55:42;5.87;;;5.30;;
15643;SDS011;7921;43.586;1.408;2022-11-11T04:58:27;5.87;;;5.37;;
15643;SDS011;7921;43.586;1.408;2022-11-11T05:00:53;5.73;;;5.20;;
15643;SDS011;7921;43.586;1.408;2022-11-11T05:03:19;6.47;;;5.80;;
15643;SDS011;7921;43.586;1.408;2022-11-11T05:05:49;6.50;;;5.83;;
15643;SDS011;7921;43.586;1.408;2022-11-11T05:08:38;7.00;;;6.30;;
15643;SDS011;7921;43.586;1.408;2022-11-11T05:11:27;6.50;;;5.90;;
15643;SDS011;7921;43.586;1.408;2022-11-11T05:14:03;7.23;;;6.33;;
15643;SDS011;7921;43.586;1.408;2022-11-11T05:16:52;6.93;;;5.90;;
15643;SDS011;7921;43.586;1.408;2022-11-11T05:19:40;7.57;;;6.23;;
15643;SDS011;7921;43.586;1.408;2022-11-11T05:22:26;8.17;;;5.77;;
15643;SDS011;7921;43.586;1.408;2022-11-11T05:25:05;6.27;;;5.67;;
15643;SDS011;7921;43.586;1.408;2022-11-11T05:27:50;6.10;;;5.63;;
15643;SDS011;7921;43.586;1.408;2022-11-11T05:30:16;6.00;;;5.50;;
15643;SDS011;7921;43.586;1.408;2022-11-11T05:32:42;5.50;;;5.10;;
15643;SDS011;7921;43.586;1.408;2022-11-11T05:35:08;6.60;;;6.00;;
15643;SDS011;7921;43.586;1.408;2022-11-11T05:37:34;6.97;;;6.37;;
15643;SDS011;7921;43.586;1.408;2022-11-11T05:39:59;7.63;;;6.93;;
15643;SDS011;7921;43.586;1.408;2022-11-11T05:42:25;7.00;;;6.40;;
15643;SDS011;7921;43.586;1.408;2022-11-11T05:44:50;6.47;;;5.90;;
15643;SDS011;7921;43.586;1.408;2022-11-11T05:47:16;8.30;;;7.50;;
15643;SDS011;7921;43.586;1.408;2022-11-11T05:49:41;8.83;;;7.47;;
15643;SDS011;7921;43.586;1.408;2022-11-11T05:52:08;7.03;;;6.37;;
15643;SDS011;7921;43.586;1.408;2022-11-11T05:54:34;7.13;;;6.43;;
15643;SDS011;7921;43.586;1.408;2022-11-11T05:56:59;7.10;;;6.50;;
15643;SDS011;7921;43.586;1.408;2022-11-11T05:59:24;5.90;;;5.40;;
15643;SDS011;7921;43.586;1.408;2022-11-11T06:01:50;6.10;;;5.50;;
15643;SDS011;7921;43.586;1.408;2022-11-11T06:04:15;7.93;;;6.53;;
15643;SDS011;7921;43.586;1.408;2022-11-11T06:06:41;7.10;;;6.50;;
15643;SDS011;7921;43.586;1.408;2022-11-11T06:09:06;7.70;;;7.00;;
15643;SDS011;7921;43.586;1.408;2022-11-11T06:11:32;6.93;;;6.43;;
15643;SDS011;7921;43.586;1.408;2022-11-11T06:13:57;7.70;;;6.93;;
15643;SDS011;7921;43.586;1.408;2022-11-11T06:16:23;6.30;;;5.87;;
15643;SDS011;7921;43.586;1.408;2022-11-11T06:18:49;6.70;;;6.10;;
15643;SDS011;7921;43.586;1.408;2022-11-11T06:21:15;7.47;;;6.87;;
15643;SDS011;7921;43.586;1.408;2022-11-11T06:23:40;6.63;;;6.13;;
15643;SDS011;7921;43.586;1.408;2022-11-11T06:26:06;6.73;;;6.07;;
15643;SDS011;7921;43.586;1.408;2022-11-11T06:28:38;6.73;;;6.03;;
15643;SDS011;7921;43.586;1.408;2022-11-11T06:31:17;6.53;;;5.97;;
15643;SDS011;7921;43.586;1.408;2022-11-11T06:33:47;6.70;;;6.20;;
15643;SDS011;7921;43.586;1.408;2022-11-11T06:36:13;6.50;;;5.90;;
15643;SDS011;7921;43.586;1.408;2022-11-11T06:38:40;6.30;;;5.70;;
15643;SDS011;7921;43.586;1.408;2022-11-11T06:41:06;6.67;;;6.13;;
15643;SDS011;7921;43.586;1.408;2022-11-11T06:43:32;8.57;;;7.77;;
15643;SDS011;7921;43.586;1.408;2022-11-11T06:45:58;9.10;;;8.27;;
15643;SDS011;7921;43.586;1.408;2022-11-11T06:48:25;7.50;;;6.80;;
15643;SDS011;7921;43.586;1.408;2022-11-11T06:50:51;5.90;;;5.50;;
15643;SDS011;7921;43.586;1.408;2022-11-11T06:53:17;5.77;;;5.37;;
15643;SDS011;7921;43.586;1.408;2022-11-11T06:55:43;6.30;;;5.37;;
15643;SDS011;7921;43.586;1.408;2022-11-11T06:58:09;7.70;;;7.03;;
15643;SDS011;7921;43.586;1.408;2022-11-11T07:00:40;7.90;;;7.30;;
15643;SDS011;7921;43.586;1.408;2022-11-11T07:03:07;8.43;;;7.70;;
15643;SDS011;7921;43.586;1.408;2022-11-11T07:05:34;8.33;;;7.53;;
15643;SDS011;7921;43.586;1.408;2022-11-11T07:08:03;10.40;;;7.13;;
15643;SDS011;7921;43.586;1.408;2022-11-11T07:10:30;12.13;;;7.40;;
15643;SDS011;7921;43.586;1.408;2022-11-11T07:12:56;9.17;;;7.27;;
15643;SDS011;7921;43.586;1.408;2022-11-11T07:15:22;7.93;;;7.20;;
15643;SDS011;7921;43.586;1.408;2022-11-11T07:17:47;7.03;;;6.43;;
15643;SDS011;7921;43.586;1.408;2022-11-11T07:20:13;6.70;;;6.10;;
15643;SDS011;7921;43.586;1.408;2022-11-11T07:22:38;5.93;;;5.43;;
15643;SDS011;7921;43.586;1.408;2022-11-11T07:25:04;6.13;;;5.57;;
15643;SDS011;7921;43.586;1.408;2022-11-11T07:27:30;6.20;;;5.60;;
15643;SDS011;7921;43.586;1.408;2022-11-11T07:29:55;5.47;;;4.97;;
15643;SDS011;7921;43.586;1.408;2022-11-11T07:32:20;5.13;;;4.73;;
15643;SDS011;7921;43.586;1.408;2022-11-11T07:34:46;5.10;;;4.70;;
15643;SDS011;7921;43.586;1.408;2022-11-11T07:37:11;4.57;;;4.27;;
15643;SDS011;7921;43.586;1.408;2022-11-11T07:39:37;4.97;;;4.00;;
15643;SDS011;7921;43.586;1.408;2022-11-11T07:42:02;4.67;;;4.33;;
15643;SDS011;7921;43.586;1.408;2022-11-11T07:44:28;5.00;;;4.50;;
15643;SDS011;7921;43.586;1.408;2022-11-11T07:46:53;4.70;;;4.30;;
15643;SDS011;7921;43.586;1.408;2022-11-11T07:49:18;4.27;;;3.87;;
15643;SDS011;7921;43.586;1.408;2022-11-11T07:51:44;5.00;;;4.50;;
15643;SDS011;7921;43.586;1.408;2022-11-11T07:54:09;4.00;;;3.70;;
15643;SDS011;7921;43.586;1.408;2022-11-11T07:56:34;4.70;;;4.30;;
15643;SDS011;7921;43.586;1.408;2022-11-11T07:59:00;4.27;;;3.90;;
15643;SDS011;7921;43.586;1.408;2022-11-11T08:01:25;4.40;;;4.00;;
15643;SDS011;7921;43.586;1.408;2022-11-11T08:03:51;5.47;;;3.90;;
15643;SDS011;7921;43.586;1.408;2022-11-11T08:06:17;4.40;;;4.10;;
15643;SDS011;7921;43.586;1.408;2022-11-11T08:08:43;4.57;;;4.17;;
15643;SDS011;7921;43.586;1.408;2022-11-11T08:11:08;4.57;;;4.03;;
15643;SDS011;7921;43.586;1.408;2022-11-11T08:13:34;4.93;;;4.17;;
15643;SDS011;7921;43.586;1.408;2022-11-11T08:16:13;5.53;;;4.37;;
15643;SDS011;7921;43.586;1.408;2022-11-11T08:18:39;5.80;;;4.60;;
15643;SDS011;7921;43.586;1.408;2022-11-11T08:21:05;5.07;;;4.30;;
15643;SDS011;7921;43.586;1.408;2022-11-11T08:23:30;4.80;;;4.40;;
15643;SDS011;7921;43.586;1.408;2022-11-11T08:28:30;6.07;;;4.43;;
15643;SDS011;7921;43.586;1.408;2022-11-11T08:30:59;6.33;;;4.50;;
15643;SDS011;7921;43.586;1.408;2022-11-11T08:33:26;5.93;;;4.93;;
15643;SDS011;7921;43.586;1.408;2022-11-11T08:35:52;4.17;;;3.77;;
15643;SDS011;7921;43.586;1.408;2022-11-11T08:38:19;5.93;;;3.60;;
15643;SDS011;7921;43.586;1.408;2022-11-11T08:40:45;4.80;;;3.50;;
15643;SDS011;7921;43.586;1.408;2022-11-11T08:43:11;5.93;;;3.43;;
15643;SDS011;7921;43.586;1.408;2022-11-11T08:45:36;4.53;;;2.80;;
15643;SDS011;7921;43.586;1.408;2022-11-11T08:48:02;5.17;;;2.90;;
15643;SDS011;7921;43.586;1.408;2022-11-11T08:50:28;4.77;;;3.23;;
15643;SDS011;7921;43.586;1.408;2022-11-11T08:52:53;3.07;;;2.83;;
15643;SDS011;7921;43.586;1.408;2022-11-11T08:55:18;4.23;;;3.23;;
15643;SDS011;7921;43.586;1.408;2022-11-11T08:57:44;3.70;;;2.40;;
15643;SDS011;7921;43.586;1.408;2022-11-11T09:00:10;3.73;;;2.73;;
15643;SDS011;7921;43.586;1.408;2022-11-11T09:02:37;4.50;;;2.33;;
15643;SDS011;7921;43.586;1.408;2022-11-11T09:05:02;3.40;;;2.30;;
15643;SDS011;7921;43.586;1.408;2022-11-11T09:07:28;4.80;;;2.23;;
15643;SDS011;7921;43.586;1.408;2022-11-11T09:09:53;4.17;;;2.20;;
15643;SDS011;7921;43.586;1.408;2022-11-11T09:12:19;3.80;;;2.33;;
15643;SDS011;7921;43.586;1.408;2022-11-11T09:14:44;3.37;;;2.20;;
15643;SDS011;7921;43.586;1.408;2022-11-11T09:17:09;2.83;;;2.00;;
15643;SDS011;7921;43.586;1.408;2022-11-11T09:19:35;6.40;;;2.40;;
15643;SDS011;7921;43.586;1.408;2022-11-11T09:22:00;2.90;;;2.07;;
15643;SDS011;7921;43.586;1.408;2022-11-11T09:24:25;3.57;;;2.07;;
15643;SDS011;7921;43.586;1.408;2022-11-11T09:26:51;3.57;;;2.13;;
15643;SDS011;7921;43.586;1.408;2022-11-11T09:29:16;3.97;;;2.20;;
15643;SDS011;7921;43.586;1.408;2022-11-11T09:31:42;4.00;;;2.10;;
15643;SDS011;7921;43.586;1.408;2022-11-11T09:34:08;4.63;;;2.00;;
15643;SDS011;7921;43.586;1.408;2022-11-11T09:36:34;3.63;;;2.23;;
15643;SDS011;7921;43.586;1.408;2022-11-11T09:38:59;3.10;;;2.00;;
15643;SDS011;7921;43.586;1.408;2022-11-11T09:46:58;3.73;;;1.80;;
15643;SDS011;7921;43.586;1.408;2022-11-11T09:52:17;3.00;;;2.10;;
15643;SDS011;7921;43.586;1.408;2022-11-11T09:57:20;4.93;;;2.23;;
15643;SDS011;7921;43.586;1.408;2022-11-11T10:00:13;3.10;;;1.50;;
15643;SDS011;7921;43.586;1.408;2022-11-11T10:02:44;1.87;;;1.53;;
15643;SDS011;7921;43.586;1.408;2022-11-11T10:05:12;2.00;;;1.60;;
15643;SDS011;7921;43.586;1.408;2022-11-11T10:07:48;3.30;;;2.00;;
15643;SDS011;7921;43.586;1.408;2022-11-11T10:11:02;2.70;;;1.60;;
15643;SDS011;7921;43.586;1.408;2022-11-11T10:13:11;6.10;;;1.70;;
15643;SDS011;7921;43.586;1.408;2022-11-11T10:15:40;2.33;;;1.33;;
15643;SDS011;7921;43.586;1.408;2022-11-11T10:20:48;2.00;;;1.60;;
15643;SDS011;7921;43.586;1.408;2022-11-11T10:23:19;3.13;;;1.50;;
15643;SDS011;7921;43.586;1.408;2022-11-11T10:25:56;3.50;;;1.80;;
15643;SDS011;7921;43.586;1.408;2022-11-11T10:28:29;4.27;;;1.93;;
15643;SDS011;7921;43.586;1.408;2022-11-11T10:30:57;2.17;;;1.60;;
15643;SDS011;7921;43.586;1.408;2022-11-11T10:33:26;3.23;;;1.70;;
15643;SDS011;7921;43.586;1.408;2022-11-11T10:35:55;2.77;;;1.50;;
15643;SDS011;7921;43.586;1.408;2022-11-11T10:40:53;3.27;;;1.60;;
15643;SDS011;7921;43.586;1.408;2022-11-11T10:43:24;3.33;;;1.50;;
15643;SDS011;7921;43.586;1.408;2022-11-11T10:51:04;2.27;;;1.77;;
15643;SDS011;7921;43.586;1.408;2022-11-11T10:53:46;3.07;;;1.70;;
15643;SDS011;7921;43.586;1.408;2022-11-11T10:56:25;3.00;;;1.60;;
15643;SDS011;7921;43.586;1.408;2022-11-11T11:02:04;2.70;;;1.67;;
15643;SDS011;7921;43.586;1.408;2022-11-11T11:04:36;2.97;;;1.60;;
15643;SDS011;7921;43.586;1.408;2022-11-11T11:07:06;4.13;;;1.58;;
15643;SDS011;7921;43.586;1.408;2022-11-11T11:09:40;1.83;;;1.70;;
15643;SDS011;7921;43.586;1.408;2022-11-11T11:14:44;2.57;;;1.20;;
15643;SDS011;7921;43.586;1.408;2022-11-11T11:17:14;2.27;;;1.40;;
15643;SDS011;7921;43.586;1.408;2022-11-11T11:19:41;2.42;;;1.65;;
15643;SDS011;7921;43.586;1.408;2022-11-11T11:22:07;2.17;;;1.23;;
15643;SDS011;7921;43.586;1.408;2022-11-11T11:24:33;2.40;;;1.30;;
15643;SDS011;7921;43.586;1.408;2022-11-11T11:27:02;3.28;;;1.30;;
15643;SDS011;7921;43.586;1.408;2022-11-11T11:29:32;1.60;;;1.40;;
15643;SDS011;7921;43.586;1.408;2022-11-11T11:32:26;1.63;;;1.08;;
15643;SDS011;7921;43.586;1.408;2022-11-11T11:34:53;3.47;;;1.48;;
15643;SDS011;7921;43.586;1.408;2022-11-11T11:37:23;1.77;;;1.40;;
15643;SDS011;7921;43.586;1.408;2022-11-11T11:39:59;2.30;;;1.55;;
15643;SDS011;7921;43.586;1.408;2022-11-11T11:42:35;3.25;;;1.60;;
15643;SDS011;7921;43.586;1.408;2022-11-11T11:47:42;1.88;;;1.20;;
15643;SDS011;7921;43.586;1.408;2022-11-11T11:55:46;1.88;;;1.40;;
15643;SDS011;7921;43.586;1.408;2022-11-11T12:09:30;3.10;;;1.70;;
15643;SDS011;7921;43.586;1.408;2022-11-11T12:12:10;2.72;;;1.60;;
15643;SDS011;7921;43.586;1.408;2022-11-11T12:15:02;2.85;;;1.60;;
15643;SDS011;7921;43.586;1.408;2022-11-11T12:20:35;1.98;;;1.45;;
15643;SDS011;7921;43.586;1.408;2022-11-11T12:31:04;3.33;;;1.80;;
15643;SDS011;7921;43.586;1.408;2022-11-11T12:36:15;2.78;;;1.30;;
15643;SDS011;7921;43.586;1.408;2022-11-11T12:38:54;6.50;;;1.35;;
15643;SDS011;7921;43.586;1.408;2022-11-11T12:44:06;4.32;;;1.92;;
15643;SDS011;7921;43.586;1.408;2022-11-11T12:46:41;2.53;;;1.70;;
15643;SDS011;7921;43.586;1.408;2022-11-11T12:52:33;2.63;;;1.35;;
15643;SDS011;7921;43.586;1.408;2022-11-11T12:58:03;2.65;;;1.70;;
15643;SDS011;7921;43.586;1.408;2022-11-11T13:00:32;3.60;;;1.75;;
15643;SDS011;7921;43.586;1.408;2022-11-11T13:05:55;2.30;;;1.70;;
15643;SDS011;7921;43.586;1.408;2022-11-11T13:17:13;6.90;;;1.92;;
15643;SDS011;7921;43.586;1.408;2022-11-11T13:19:43;2.63;;;1.60;;
15643;SDS011;7921;43.586;1.408;2022-11-11T13:24:52;2.65;;;1.70;;
15643;SDS011;7921;43.586;1.408;2022-11-11T13:32:38;1.65;;;1.50;;
15643;SDS011;7921;43.586;1.408;2022-11-11T13:35:17;2.58;;;1.45;;
15643;SDS011;7921;43.586;1.408;2022-11-11T13:37:46;2.28;;;1.73;;
15643;SDS011;7921;43.586;1.408;2022-11-11T13:40:22;4.10;;;1.75;;
15643;SDS011;7921;43.586;1.408;2022-11-11T13:42:54;1.90;;;1.48;;
15643;SDS011;7921;43.586;1.408;2022-11-11T13:45:25;3.28;;;1.63;;
15643;SDS011;7921;43.586;1.408;2022-11-11T13:47:52;3.58;;;1.90;;
15643;SDS011;7921;43.586;1.408;2022-11-11T13:52:53;5.65;;;1.83;;
15643;SDS011;7921;43.586;1.408;2022-11-11T13:55:35;3.80;;;1.88;;
15643;SDS011;7921;43.586;1.408;2022-11-11T13:58:02;4.45;;;1.83;;
15643;SDS011;7921;43.586;1.408;2022-11-11T14:00:30;3.90;;;2.08;;
15643;SDS011;7921;43.586;1.408;2022-11-11T14:03:27;3.60;;;1.98;;
15643;SDS011;7921;43.586;1.408;2022-11-11T14:05:45;3.72;;;2.30;;
15643;SDS011;7921;43.586;1.408;2022-11-11T14:08:40;3.08;;;2.03;;
15643;SDS011;7921;43.586;1.408;2022-11-11T14:13:48;3.38;;;2.10;;
15643;SDS011;7921;43.586;1.408;2022-11-11T14:21:46;2.97;;;1.83;;
15643;SDS011;7921;43.586;1.408;2022-11-11T14:24:21;5.15;;;2.05;;
15643;SDS011;7921;43.586;1.408;2022-11-11T14:27:03;3.58;;;2.28;;
15643;SDS011;7921;43.586;1.408;2022-11-11T14:29:52;3.50;;;2.47;;
15643;SDS011;7921;43.586;1.408;2022-11-11T14:32:23;4.05;;;2.08;;
15643;SDS011;7921;43.586;1.408;2022-11-11T14:35:30;3.67;;;2.10;;
15643;SDS011;7921;43.586;1.408;2022-11-11T14:49:45;3.70;;;1.63;;
15643;SDS011;7921;43.586;1.408;2022-11-11T14:57:37;2.45;;;1.63;;
15643;SDS011;7921;43.586;1.408;2022-11-11T15:06:04;2.55;;;1.75;;
15643;SDS011;7921;43.586;1.408;2022-11-11T15:11:59;4.32;;;1.95;;
15643;SDS011;7921;43.586;1.408;2022-11-11T15:23:00;3.28;;;2.10;;
15643;SDS011;7921;43.586;1.408;2022-11-11T15:31:38;3.85;;;1.90;;
15643;SDS011;7921;43.586;1.408;2022-11-11T15:37:01;2.25;;;1.67;;
15643;SDS011;7921;43.586;1.408;2022-11-11T15:39:37;3.20;;;1.95;;
15643;SDS011;7921;43.586;1.408;2022-11-11T15:42:17;2.15;;;1.75;;
15643;SDS011;7921;43.586;1.408;2022-11-11T15:44:49;3.50;;;1.90;;
15643;SDS011;7921;43.586;1.408;2022-11-11T15:47:15;3.60;;;1.80;;
15643;SDS011;7921;43.586;1.408;2022-11-11T15:49:42;5.90;;;2.13;;
15643;SDS011;7921;43.586;1.408;2022-11-11T15:52:27;3.03;;;1.80;;
15643;SDS011;7921;43.586;1.408;2022-11-11T15:54:57;3.35;;;1.90;;
15643;SDS011;7921;43.586;1.408;2022-11-11T15:57:24;4.03;;;2.60;;
15643;SDS011;7921;43.586;1.408;2022-11-11T15:59:50;2.47;;;1.70;;
15643;SDS011;7921;43.586;1.408;2022-11-11T16:02:22;3.72;;;1.90;;
15643;SDS011;7921;43.586;1.408;2022-11-11T16:07:30;5.45;;;1.90;;
15643;SDS011;7921;43.586;1.408;2022-11-11T16:09:59;4.20;;;2.13;;
15643;SDS011;7921;43.586;1.408;2022-11-11T16:12:32;4.22;;;1.83;;
15643;SDS011;7921;43.586;1.408;2022-11-11T16:15:08;3.58;;;2.10;;
15643;SDS011;7921;43.586;1.408;2022-11-11T16:17:36;3.92;;;1.85;;
15643;SDS011;7921;43.586;1.408;2022-11-11T16:20:03;2.47;;;1.80;;
15643;SDS011;7921;43.586;1.408;2022-11-11T16:22:30;2.15;;;1.70;;
15643;SDS011;7921;43.586;1.408;2022-11-11T16:24:57;5.13;;;1.83;;
15643;SDS011;7921;43.586;1.408;2022-11-11T16:27:27;4.72;;;2.00;;
15643;SDS011;7921;43.586;1.408;2022-11-11T16:29:53;2.80;;;1.90;;
15643;SDS011;7921;43.586;1.408;2022-11-11T16:34:47;2.97;;;2.30;;
15643;SDS011;7921;43.586;1.408;2022-11-11T16:37:14;4.53;;;1.73;;
15643;SDS011;7921;43.586;1.408;2022-11-11T16:39:40;2.53;;;1.90;;
15643;SDS011;7921;43.586;1.408;2022-11-11T16:42:25;3.40;;;2.43;;
15643;SDS011;7921;43.586;1.408;2022-11-11T16:45:35;2.88;;;1.80;;
15643;SDS011;7921;43.586;1.408;2022-11-11T16:47:48;2.42;;;1.77;;
15643;SDS011;7921;43.586;1.408;2022-11-11T16:50:24;2.83;;;1.93;;
15643;SDS011;7921;43.586;1.408;2022-11-11T16:57:59;4.13;;;1.87;;
15643;SDS011;7921;43.586;1.408;2022-11-11T17:00:35;4.07;;;2.07;;
15643;SDS011;7921;43.586;1.408;2022-11-11T17:03:08;4.10;;;2.03;;
15643;SDS011;7921;43.586;1.408;2022-11-11T17:11:05;5.27;;;2.03;;
15643;SDS011;7921;43.586;1.408;2022-11-11T17:13:35;4.53;;;2.33;;
15643;SDS011;7921;43.586;1.408;2022-11-11T17:16:01;3.93;;;2.40;;
15643;SDS011;7921;43.586;1.408;2022-11-11T17:18:36;5.00;;;2.10;;
15643;SDS011;7921;43.586;1.408;2022-11-11T17:21:02;7.73;;;2.63;;
15643;SDS011;7921;43.586;1.408;2022-11-11T17:23:27;5.73;;;2.70;;
15643;SDS011;7921;43.586;1.408;2022-11-11T17:25:56;4.83;;;2.03;;
15643;SDS011;7921;43.586;1.408;2022-11-11T17:28:24;5.40;;;2.27;;
15643;SDS011;7921;43.586;1.408;2022-11-11T17:30:50;2.90;;;2.43;;
15643;SDS011;7921;43.586;1.408;2022-11-11T17:33:16;5.30;;;2.00;;
15643;SDS011;7921;43.586;1.408;2022-11-11T17:35:50;4.43;;;2.40;;
15643;SDS011;7921;43.586;1.408;2022-11-11T17:38:16;4.43;;;2.60;;
15643;SDS011;7921;43.586;1.408;2022-11-11T17:40:45;4.90;;;2.40;;
15643;SDS011;7921;43.586;1.408;2022-11-11T17:43:12;4.63;;;2.33;;
15643;SDS011;7921;43.586;1.408;2022-11-11T17:45:38;5.70;;;2.67;;
15643;SDS011;7921;43.586;1.408;2022-11-11T17:48:03;5.97;;;2.30;;
15643;SDS011;7921;43.586;1.408;2022-11-11T17:50:29;4.47;;;2.30;;
15643;SDS011;7921;43.586;1.408;2022-11-11T17:52:54;3.63;;;2.33;;
15643;SDS011;7921;43.586;1.408;2022-11-11T17:55:21;4.73;;;2.33;;
15643;SDS011;7921;43.586;1.408;2022-11-11T17:57:46;2.87;;;2.17;;
15643;SDS011;7921;43.586;1.408;2022-11-11T18:00:12;5.10;;;2.53;;
15643;SDS011;7921;43.586;1.408;2022-11-11T18:02:38;3.87;;;2.57;;
15643;SDS011;7921;43.586;1.408;2022-11-11T18:05:04;3.90;;;2.80;;